createdAt,value
2018-03-18T00:04:04.734Z,51.30
2018-03-18T00:08:55.635Z,51.10
2018-03-18T00:13:47.294Z,50.90
2018-03-18T00:18:38.936Z,51.10
2018-03-18T00:23:30.582Z,51.30
2018-03-18T00:28:21.477Z,51.30
2018-03-18T00:33:12.385Z,50.90
2018-03-18T00:38:03.324Z,50.80
2018-03-18T00:42:54.228Z,50.90
2018-03-18T00:47:45.882Z,51.00
2018-03-18T00:52:36.806Z,51.00
2018-03-18T00:57:27.709Z,51.10
2018-03-18T01:02:20.073Z,50.80
2018-03-18T01:07:10.992Z,50.70
2018-03-18T01:12:01.890Z,51.00
2018-03-18T01:16:52.807Z,51.10
2018-03-18T01:21:43.710Z,50.80
2018-03-18T01:26:34.652Z,50.90
2018-03-18T01:31:25.554Z,51.20
2018-03-18T01:36:17.209Z,51.80
2018-03-18T01:41:08.876Z,51.40
2018-03-18T01:46:00.533Z,51.20
2018-03-18T01:50:52.170Z,51.00
2018-03-18T01:55:43.063Z,50.90
2018-03-18T02:00:33.949Z,51.10
2018-03-18T02:05:25.578Z,51.10
2018-03-18T02:10:16.495Z,51.00
2018-03-18T02:15:07.393Z,50.80
2018-03-18T02:19:58.273Z,50.70
2018-03-18T02:24:49.173Z,51.00
2018-03-18T02:29:40.068Z,51.00
2018-03-18T02:34:30.966Z,50.90
2018-03-18T02:39:22.597Z,50.70
2018-03-18T02:44:13.479Z,50.70
2018-03-18T02:49:04.381Z,50.80
2018-03-18T02:53:56.050Z,50.50
2018-03-18T02:58:46.933Z,50.40
2018-03-18T03:03:38.572Z,49.70
2018-03-18T03:08:29.453Z,50.80
2018-03-18T03:13:20.359Z,50.30
2018-03-18T03:18:11.240Z,50.50
2018-03-18T03:23:02.125Z,50.40
2018-03-18T03:27:53.061Z,50.40
2018-03-18T03:32:43.941Z,50.40
2018-03-18T03:37:34.853Z,50.50
2018-03-18T03:42:25.737Z,50.70
2018-03-18T03:47:17.361Z,50.60
2018-03-18T03:52:08.254Z,50.50
2018-03-18T03:56:59.150Z,50.40
2018-03-18T04:01:50.064Z,50.60
2018-03-18T04:06:40.943Z,50.40
2018-03-18T04:11:31.863Z,50.70
2018-03-18T04:16:22.790Z,50.70
2018-03-18T04:21:13.681Z,50.60
2018-03-18T04:26:05.376Z,50.70
2018-03-18T04:30:56.268Z,50.70
2018-03-18T04:35:47.169Z,50.80
2018-03-18T04:40:38.087Z,51.00
2018-03-18T04:45:28.989Z,51.60
2018-03-18T04:50:19.881Z,50.40
2018-03-18T04:55:11.535Z,51.00
2018-03-18T05:00:02.430Z,51.00
2018-03-18T05:04:53.339Z,50.80
2018-03-18T05:09:44.251Z,50.70
2018-03-18T05:14:35.153Z,50.90
2018-03-18T05:19:26.053Z,51.10
2018-03-18T05:24:16.959Z,50.80
2018-03-18T05:29:07.849Z,51.00
2018-03-18T05:33:58.759Z,51.20
2018-03-18T05:38:50.401Z,51.10
2018-03-18T05:43:42.038Z,50.90
2018-03-18T05:48:32.937Z,50.90
2018-03-18T05:53:23.829Z,51.10
2018-03-18T05:58:14.721Z,51.40
2018-03-18T06:03:05.738Z,51.50
2018-03-18T06:07:56.629Z,51.60
2018-03-18T06:12:47.547Z,51.60
2018-03-18T06:17:39.173Z,51.20
2018-03-18T06:22:30.812Z,51.50
2018-03-18T06:27:21.712Z,51.40
2018-03-18T06:32:12.610Z,51.60
2018-03-18T06:37:03.517Z,51.20
2018-03-18T06:41:54.469Z,51.40
2018-03-18T06:46:45.406Z,51.40
2018-03-18T06:51:36.347Z,51.60
2018-03-18T06:56:27.249Z,51.50
2018-03-18T07:01:18.771Z,51.30
2018-03-18T07:06:09.711Z,51.10
2018-03-18T07:11:00.635Z,51.10
2018-03-18T07:15:51.530Z,51.10
2018-03-18T07:20:43.157Z,51.30
2018-03-18T07:25:34.100Z,51.30
2018-03-18T07:30:24.971Z,50.80
2018-03-18T07:35:15.877Z,50.90
2018-03-18T07:40:06.815Z,50.60
2018-03-18T07:44:57.726Z,50.50
2018-03-18T07:49:48.611Z,50.50
2018-03-18T07:54:40.240Z,50.50
2018-03-18T07:59:31.141Z,51.00
2018-03-18T08:04:22.063Z,50.60
2018-03-18T08:09:12.970Z,50.70
2018-03-18T08:14:05.182Z,50.60
2018-03-18T08:18:56.045Z,50.50
2018-03-18T08:23:46.943Z,50.50
2018-03-18T08:28:37.829Z,50.50
2018-03-18T08:33:29.573Z,50.80
2018-03-18T08:38:20.557Z,50.70
2018-03-18T08:43:11.454Z,51.30
2018-03-18T08:48:03.081Z,52.20
2018-03-18T08:52:54.111Z,52.10
2018-03-18T08:57:45.011Z,52.20
2018-03-18T09:02:35.945Z,52.10
2018-03-18T09:07:26.885Z,52.10
2018-03-18T09:12:17.777Z,52.00
2018-03-18T09:17:09.462Z,52.00
2018-03-18T09:22:00.378Z,52.00
2018-03-18T09:26:51.319Z,51.60
2018-03-18T09:31:42.233Z,51.40
2018-03-18T09:36:33.186Z,51.00
2018-03-18T09:41:24.099Z,50.70
2018-03-18T09:46:14.993Z,50.60
2018-03-18T09:51:05.880Z,50.50
2018-03-18T09:55:56.791Z,50.50
2018-03-18T10:00:47.910Z,50.50
2018-03-18T10:05:38.837Z,50.60
2018-03-18T10:10:29.741Z,50.60
2018-03-18T10:15:20.634Z,50.40
2018-03-18T10:20:11.645Z,49.90
2018-03-18T10:25:02.477Z,49.60
2018-03-18T10:29:54.109Z,49.90
2018-03-18T10:34:45.129Z,49.30
2018-03-18T10:39:36.043Z,49.40
2018-03-18T10:44:26.930Z,49.20
2018-03-18T10:49:17.834Z,48.80
2018-03-18T10:54:09.499Z,48.60
2018-03-18T10:59:00.390Z,48.50
2018-03-18T11:03:58.269Z,48.50
2018-03-18T11:08:49.178Z,47.70
2018-03-18T11:13:40.071Z,47.70
2018-03-18T11:18:30.965Z,47.80
2018-03-18T11:23:21.869Z,48.00
2018-03-18T11:28:12.783Z,47.80
2018-03-18T11:33:03.696Z,47.90
2018-03-18T11:37:54.600Z,47.90
2018-03-18T11:42:46.289Z,46.20
2018-03-18T11:47:37.205Z,46.10
2018-03-18T11:52:28.105Z,45.80
2018-03-18T11:57:19.756Z,45.60
2018-03-18T12:02:10.656Z,45.40
2018-03-18T12:07:01.547Z,45.30
2018-03-18T12:11:52.451Z,45.20
2018-03-18T12:16:44.146Z,45.40
2018-03-18T12:21:35.029Z,45.40
2018-03-18T12:26:26.662Z,44.10
2018-03-18T12:31:18.319Z,43.30
2018-03-18T12:36:09.963Z,42.70
2018-03-18T12:41:01.601Z,43.30
2018-03-18T12:45:53.293Z,43.70
2018-03-18T12:50:44.185Z,43.60
2018-03-18T12:55:35.083Z,43.60
2018-03-18T13:00:25.981Z,42.80
2018-03-18T13:05:16.873Z,43.50
2018-03-18T13:10:07.769Z,42.10
2018-03-18T13:14:58.654Z,42.40
2018-03-18T13:19:49.546Z,42.60
2018-03-18T13:24:41.241Z,42.30
2018-03-18T13:29:32.165Z,42.30
2018-03-18T13:34:23.060Z,42.50
2018-03-18T13:39:14.680Z,42.50
2018-03-18T13:44:05.559Z,42.50
2018-03-18T13:48:56.450Z,42.60
2018-03-18T13:53:47.333Z,42.80
2018-03-18T13:58:38.225Z,42.90
2018-03-18T14:03:29.860Z,43.80
2018-03-18T14:08:21.484Z,43.30
2018-03-18T14:13:12.399Z,43.30
2018-03-18T14:18:03.293Z,43.40
2018-03-18T14:22:54.187Z,43.80
2018-03-18T14:27:45.824Z,43.70
2018-03-18T14:32:36.717Z,43.70
2018-03-18T14:37:27.661Z,43.50
2018-03-18T14:42:19.241Z,43.60
2018-03-18T14:47:10.203Z,43.50
2018-03-18T14:52:01.097Z,44.60
2018-03-18T14:56:52.733Z,44.70
2018-03-18T15:01:43.630Z,44.00
2018-03-18T15:06:34.517Z,43.70
2018-03-18T15:11:25.412Z,43.70
2018-03-18T15:16:17.033Z,43.40
2018-03-18T15:21:07.929Z,43.30
2018-03-18T15:25:58.821Z,43.70
2018-03-18T15:30:50.480Z,43.30
2018-03-18T15:35:41.370Z,43.30
2018-03-18T15:40:32.253Z,43.10
2018-03-18T15:45:23.133Z,44.10
2018-03-18T15:50:14.753Z,43.60
2018-03-18T15:55:05.625Z,43.50
2018-03-18T15:59:56.515Z,43.30
2018-03-18T16:04:48.130Z,44.00
2018-03-18T16:09:39.017Z,43.80
2018-03-18T16:14:29.917Z,43.60
2018-03-18T16:19:20.797Z,43.60
2018-03-18T16:24:11.691Z,43.70
2018-03-18T16:29:14.982Z,44.40
2018-03-18T16:34:05.924Z,43.60
2018-03-18T16:38:56.823Z,43.70
2018-03-18T16:43:47.718Z,43.70
2018-03-18T16:48:38.640Z,43.00
2018-03-18T16:53:29.546Z,43.00
2018-03-18T16:58:21.180Z,43.30
2018-03-18T17:03:12.809Z,43.40
2018-03-18T17:08:03.690Z,42.90
2018-03-18T17:12:54.587Z,43.50
2018-03-18T17:17:45.543Z,43.60
2018-03-18T17:22:36.439Z,43.80
2018-03-18T17:27:27.339Z,43.90
2018-03-18T17:32:18.221Z,43.90
2018-03-18T17:37:09.101Z,44.20
2018-03-18T17:42:00.731Z,44.60
2018-03-18T17:47:04.229Z,44.60
2018-03-18T17:52:08.613Z,44.50
2018-03-18T17:57:00.244Z,44.50
2018-03-18T18:01:52.001Z,45.60
2018-03-18T18:06:43.670Z,45.10
2018-03-18T18:11:34.581Z,45.10
2018-03-18T18:16:26.269Z,44.80
2018-03-18T18:21:17.157Z,44.80
2018-03-18T18:26:08.845Z,45.60
2018-03-18T18:30:59.728Z,45.50
2018-03-18T18:35:51.372Z,45.10
2018-03-18T18:40:42.315Z,45.00
2018-03-18T18:45:33.953Z,45.20
2018-03-18T18:50:25.643Z,45.40
2018-03-18T18:55:16.533Z,45.40
2018-03-18T19:00:07.435Z,45.60
2018-03-18T19:04:58.326Z,45.60
2018-03-18T19:09:49.222Z,45.80
2018-03-18T19:14:40.865Z,45.90
2018-03-18T19:19:32.504Z,45.70
2018-03-18T19:24:24.136Z,45.50
2018-03-18T19:29:15.038Z,45.50
2018-03-18T19:34:05.934Z,45.60
2018-03-18T19:38:57.595Z,46.30
2018-03-18T19:43:48.504Z,46.30
2018-03-18T19:48:40.145Z,46.30
2018-03-18T19:53:31.777Z,46.70
2018-03-18T19:58:22.707Z,46.20
2018-03-18T20:03:13.607Z,46.40
2018-03-18T20:08:04.501Z,46.20
2018-03-18T20:12:56.136Z,46.30
2018-03-18T20:17:47.761Z,46.20
2018-03-18T20:22:38.655Z,46.10
2018-03-18T20:27:29.615Z,46.20
2018-03-18T20:32:20.639Z,46.60
2018-03-18T20:37:11.629Z,46.70
2018-03-18T20:42:02.527Z,46.60
2018-03-18T20:46:54.342Z,46.60
2018-03-18T20:51:46.712Z,46.60
2018-03-18T20:56:37.698Z,46.60
2018-03-18T21:01:28.591Z,46.70
2018-03-18T21:06:20.221Z,46.50
2018-03-18T21:11:11.857Z,46.00
2018-03-18T21:16:03.487Z,46.40
2018-03-18T21:20:54.361Z,46.80
2018-03-18T21:25:46.728Z,47.00
2018-03-18T21:30:37.653Z,46.80
2018-03-18T21:35:28.553Z,46.70
2018-03-18T21:40:20.181Z,47.00
2018-03-18T21:45:11.821Z,47.00
2018-03-18T21:50:02.724Z,47.00
2018-03-18T21:54:54.469Z,46.90
2018-03-18T21:59:45.363Z,46.90
2018-03-18T22:04:36.327Z,46.90
2018-03-18T22:09:27.295Z,47.00
2018-03-18T22:14:19.096Z,47.30
2018-03-18T22:19:10.003Z,47.00
2018-03-18T22:24:15.871Z,47.00
2018-03-18T22:29:07.554Z,46.90
2018-03-18T22:33:59.171Z,46.90
2018-03-18T22:38:50.851Z,46.70
2018-03-18T22:43:41.745Z,46.70
2018-03-18T22:48:32.636Z,46.90
2018-03-18T22:53:23.557Z,47.00
2018-03-18T22:58:14.461Z,47.00
2018-03-18T23:03:05.350Z,47.10
2018-03-18T23:07:56.241Z,47.20
2018-03-18T23:12:47.145Z,47.40
2018-03-18T23:17:38.043Z,47.20
2018-03-18T23:22:29.673Z,47.10
2018-03-18T23:27:20.625Z,47.00
2018-03-18T23:32:12.240Z,47.30
2018-03-18T23:37:03.149Z,47.30
2018-03-18T23:41:54.055Z,47.20
2018-03-18T23:46:44.966Z,47.00
2018-03-18T23:51:35.861Z,47.30
2018-03-18T23:56:28.233Z,47.10
